sensor_id;sensor_type;location;lat;lon;timestamp;pressure;altitude;pressure_sealevel;temperature;humidity
32875;BME280;40468;42.128;24.750;2023-04-25T00:01:27;98968.84;;;14.47;77.85
32875;BME280;40468;42.128;24.750;2023-04-25T00:02:59;98954.41;;;14.42;78.26
32875;BME280;40468;42.128;24.750;2023-04-25T00:04:31;98962.28;;;14.42;78.35
32875;BME280;40468;42.128;24.750;2023-04-25T00:06:04;98956.44;;;14.38;78.24
32875;BME280;40468;42.128;24.750;2023-04-25T00:07:36;98959.16;;;14.37;78.56
32875;BME280;40468;42.128;24.750;2023-04-25T00:09:08;98952.47;;;14.32;78.77
32875;BME280;40468;42.128;24.750;2023-04-25T00:10:41;98953.41;;;14.31;78.83
32875;BME280;40468;42.128;24.750;2023-04-25T00:12:13;98955.19;;;14.31;78.87
32875;BME280;40468;42.128;24.750;2023-04-25T00:13:46;98945.78;;;14.28;78.91
32875;BME280;40468;42.128;24.750;2023-04-25T00:15:21;98943.91;;;14.30;79.28
32875;BME280;40468;42.128;24.750;2023-04-25T00:16:53;98940.31;;;14.20;78.87
32875;BME280;40468;42.128;24.750;2023-04-25T00:18:25;98939.56;;;14.18;79.21
32875;BME280;40468;42.128;24.750;2023-04-25T00:19:59;98938.13;;;14.14;79.43
32875;BME280;40468;42.128;24.750;2023-04-25T00:21:30;98946.81;;;14.15;79.45
32875;BME280;40468;42.128;24.750;2023-04-25T00:23:02;98940.53;;;14.17;79.58
32875;BME280;40468;42.128;24.750;2023-04-25T00:24:33;98949.22;;;14.18;79.34
32875;BME280;40468;42.128;24.750;2023-04-25T00:26:05;98941.34;;;14.18;79.23
32875;BME280;40468;42.128;24.750;2023-04-25T00:27:38;98940.63;;;14.16;79.35
32875;BME280;40468;42.128;24.750;2023-04-25T00:29:12;98943.97;;;14.18;79.45
32875;BME280;40468;42.128;24.750;2023-04-25T00:30:45;98932.66;;;14.17;79.35
32875;BME280;40468;42.128;24.750;2023-04-25T00:32:17;98930.28;;;14.14;79.18
32875;BME280;40468;42.128;24.750;2023-04-25T00:33:48;98920.97;;;14.10;79.56
32875;BME280;40468;42.128;24.750;2023-04-25T00:35:19;98930.38;;;14.13;79.27
32875;BME280;40468;42.128;24.750;2023-04-25T00:36:51;98918.34;;;14.10;79.29
32875;BME280;40468;42.128;24.750;2023-04-25T00:38:23;98924.09;;;14.15;79.42
32875;BME280;40468;42.128;24.750;2023-04-25T00:39:55;98914.66;;;14.13;79.54
32875;BME280;40468;42.128;24.750;2023-04-25T00:41:27;98918.03;;;14.15;79.45
32875;BME280;40468;42.128;24.750;2023-04-25T00:43:00;98925.97;;;14.13;79.45
32875;BME280;40468;42.128;24.750;2023-04-25T00:44:32;98927.66;;;14.14;79.26
32875;BME280;40468;42.128;24.750;2023-04-25T00:46:05;98922.44;;;14.14;79.49
32875;BME280;40468;42.128;24.750;2023-04-25T00:47:37;98925.13;;;14.13;79.40
32875;BME280;40468;42.128;24.750;2023-04-25T00:49:09;98932.16;;;14.12;79.18
32875;BME280;40468;42.128;24.750;2023-04-25T00:50:51;98925.88;;;14.15;79.62
32875;BME280;40468;42.128;24.750;2023-04-25T00:52:23;98928.50;;;14.15;79.48
32875;BME280;40468;42.128;24.750;2023-04-25T00:53:55;98925.88;;;14.15;79.41
32875;BME280;40468;42.128;24.750;2023-04-25T00:55:27;98862.53;;;13.74;79.45
32875;BME280;40468;42.128;24.750;2023-04-25T00:56:59;98937.03;;;14.17;79.11
32875;BME280;40468;42.128;24.750;2023-04-25T00:58:32;98934.34;;;14.18;79.43
32875;BME280;40468;42.128;24.750;2023-04-25T01:00:04;98936.00;;;14.19;79.40
32875;BME280;40468;42.128;24.750;2023-04-25T01:01:38;98932.31;;;14.22;79.74
32875;BME280;40468;42.128;24.750;2023-04-25T01:03:10;98921.25;;;14.18;79.81
32875;BME280;40468;42.128;24.750;2023-04-25T01:04:42;98922.81;;;14.21;79.89
32875;BME280;40468;42.128;24.750;2023-04-25T01:06:14;98921.00;;;14.21;79.53
32875;BME280;40468;42.128;24.750;2023-04-25T01:07:46;98911.81;;;14.16;79.88
32875;BME280;40468;42.128;24.750;2023-04-25T01:09:18;98916.97;;;14.17;79.91
32875;BME280;40468;42.128;24.750;2023-04-25T01:10:50;98925.97;;;14.13;80.15
32875;BME280;40468;42.128;24.750;2023-04-25T01:12:22;98931.72;;;14.18;80.02
32875;BME280;40468;42.128;24.750;2023-04-25T01:13:54;98940.53;;;14.17;80.01
32875;BME280;40468;42.128;24.750;2023-04-25T01:15:26;98937.19;;;14.15;80.42
32875;BME280;40468;42.128;24.750;2023-04-25T01:17:00;98950.38;;;14.14;80.50
32875;BME280;40468;42.128;24.750;2023-04-25T01:18:31;98934.19;;;14.08;80.27
32875;BME280;40468;42.128;24.750;2023-04-25T01:20:04;98934.06;;;14.10;80.39
32875;BME280;40468;42.128;24.750;2023-04-25T01:21:37;98936.16;;;14.05;79.96
32875;BME280;40468;42.128;24.750;2023-04-25T01:23:09;98938.69;;;14.06;80.17
32875;BME280;40468;42.128;24.750;2023-04-25T01:24:41;98940.47;;;14.06;80.17
32875;BME280;40468;42.128;24.750;2023-04-25T01:26:13;98930.31;;;14.01;80.35
32875;BME280;40468;42.128;24.750;2023-04-25T01:27:45;98893.69;;;13.77;80.48
32875;BME280;40468;42.128;24.750;2023-04-25T01:29:17;98931.28;;;14.00;80.35
32875;BME280;40468;42.128;24.750;2023-04-25T01:30:50;98926.06;;;14.00;80.47
32875;BME280;40468;42.128;24.750;2023-04-25T01:32:23;98926.06;;;14.00;80.29
32875;BME280;40468;42.128;24.750;2023-04-25T01:33:56;98924.25;;;14.01;80.47
32875;BME280;40468;42.128;24.750;2023-04-25T01:35:28;98917.97;;;14.03;80.60
32875;BME280;40468;42.128;24.750;2023-04-25T01:37:01;98916.09;;;14.05;80.26
32875;BME280;40468;42.128;24.750;2023-04-25T01:38:33;98920.34;;;14.06;80.22
32875;BME280;40468;42.128;24.750;2023-04-25T01:40:06;98923.72;;;14.08;80.23
32875;BME280;40468;42.128;24.750;2023-04-25T01:41:38;98924.63;;;14.07;80.27
32875;BME280;40468;42.128;24.750;2023-04-25T01:43:09;98925.38;;;14.09;80.10
32875;BME280;40468;42.128;24.750;2023-04-25T01:44:42;98920.47;;;14.05;80.14
32875;BME280;40468;42.128;24.750;2023-04-25T01:46:14;98924.78;;;14.06;80.31
32875;BME280;40468;42.128;24.750;2023-04-25T01:47:46;98934.28;;;14.07;80.44
32875;BME280;40468;42.128;24.750;2023-04-25T01:49:19;98933.69;;;14.03;80.72
32875;BME280;40468;42.128;24.750;2023-04-25T01:50:51;98932.00;;;14.02;80.37
32875;BME280;40468;42.128;24.750;2023-04-25T01:52:24;98922.47;;;14.01;80.64
32875;BME280;40468;42.128;24.750;2023-04-25T01:53:56;98925.91;;;14.02;80.59
32875;BME280;40468;42.128;24.750;2023-04-25T01:55:28;98913.91;;;13.99;80.72
32875;BME280;40468;42.128;24.750;2023-04-25T01:57:00;98914.75;;;14.00;80.62
32875;BME280;40468;42.128;24.750;2023-04-25T01:58:32;98909.59;;;13.98;80.57
32875;BME280;40468;42.128;24.750;2023-04-25T02:00:06;98902.59;;;13.99;80.93
32875;BME280;40468;42.128;24.750;2023-04-25T02:01:39;98908.78;;;13.98;80.76
32875;BME280;40468;42.128;24.750;2023-04-25T02:03:10;98901.97;;;13.95;81.10
32875;BME280;40468;42.128;24.750;2023-04-25T02:04:41;98907.34;;;13.94;80.99
32875;BME280;40468;42.128;24.750;2023-04-25T02:06:13;98907.56;;;13.91;80.82
32875;BME280;40468;42.128;24.750;2023-04-25T02:07:47;98915.66;;;13.87;80.87
32875;BME280;40468;42.128;24.750;2023-04-25T02:09:19;98908.94;;;13.83;81.20
32875;BME280;40468;42.128;24.750;2023-04-25T02:10:51;98909.06;;;13.82;81.33
32875;BME280;40468;42.128;24.750;2023-04-25T02:12:23;98914.41;;;13.80;81.14
32875;BME280;40468;42.128;24.750;2023-04-25T02:13:56;98908.06;;;13.72;81.27
32875;BME280;40468;42.128;24.750;2023-04-25T02:15:28;98914.47;;;13.68;81.52
32875;BME280;40468;42.128;24.750;2023-04-25T02:16:58;98905.78;;;13.67;81.79
32875;BME280;40468;42.128;24.750;2023-04-25T02:18:30;98906.84;;;13.64;81.83
32875;BME280;40468;42.128;24.750;2023-04-25T02:20:04;98904.31;;;13.63;81.94
32875;BME280;40468;42.128;24.750;2023-04-25T02:21:36;98900.13;;;13.60;82.19
32875;BME280;40468;42.128;24.750;2023-04-25T02:23:09;98903.72;;;13.59;82.21
32875;BME280;40468;42.128;24.750;2023-04-25T02:24:41;98906.56;;;13.56;82.38
32875;BME280;40468;42.128;24.750;2023-04-25T02:26:12;98910.81;;;13.57;82.76
32875;BME280;40468;42.128;24.750;2023-04-25T02:27:44;98902.97;;;13.57;82.75
32875;BME280;40468;42.128;24.750;2023-04-25T02:29:16;98869.59;;;13.37;82.57
32875;BME280;40468;42.128;24.750;2023-04-25T02:30:48;98903.09;;;13.56;82.88
32875;BME280;40468;42.128;24.750;2023-04-25T02:32:20;98897.75;;;13.57;82.78
32875;BME280;40468;42.128;24.750;2023-04-25T02:33:52;98893.59;;;13.55;82.58
32875;BME280;40468;42.128;24.750;2023-04-25T02:35:24;98900.13;;;13.60;82.79
32875;BME280;40468;42.128;24.750;2023-04-25T02:36:54;98906.22;;;13.61;82.63
32875;BME280;40468;42.128;24.750;2023-04-25T02:38:28;98901.09;;;13.59;82.65
32875;BME280;40468;42.128;24.750;2023-04-25T02:40:00;98898.59;;;13.58;82.44
32875;BME280;40468;42.128;24.750;2023-04-25T02:41:33;98893.59;;;13.55;82.85
32875;BME280;40468;42.128;24.750;2023-04-25T02:43:05;98898.91;;;13.53;82.75
32875;BME280;40468;42.128;24.750;2023-04-25T02:44:36;98897.88;;;13.56;82.63
32875;BME280;40468;42.128;24.750;2023-04-25T02:46:07;98892.72;;;13.54;82.89
32875;BME280;40468;42.128;24.750;2023-04-25T02:47:40;98879.63;;;13.43;82.83
32875;BME280;40468;42.128;24.750;2023-04-25T02:49:12;98883.66;;;13.47;82.94
32875;BME280;40468;42.128;24.750;2023-04-25T02:50:44;98898.53;;;13.47;82.72
32875;BME280;40468;42.128;24.750;2023-04-25T02:52:16;98896.00;;;13.45;83.01
32875;BME280;40468;42.128;24.750;2023-04-25T02:53:49;98901.38;;;13.43;83.02
32875;BME280;40468;42.128;24.750;2023-04-25T02:55:20;98902.63;;;13.38;82.82
32875;BME280;40468;42.128;24.750;2023-04-25T02:56:52;98904.41;;;13.37;83.26
32875;BME280;40468;42.128;24.750;2023-04-25T02:58:24;98905.34;;;13.36;83.17
32875;BME280;40468;42.128;24.750;2023-04-25T02:59:56;98911.53;;;13.35;83.40
32875;BME280;40468;42.128;24.750;2023-04-25T03:01:28;98904.94;;;13.30;83.20
32875;BME280;40468;42.128;24.750;2023-04-25T03:03:00;98910.91;;;13.32;83.12
32875;BME280;40468;42.128;24.750;2023-04-25T03:04:32;98902.25;;;13.31;83.04
32875;BME280;40468;42.128;24.750;2023-04-25T03:06:04;98911.97;;;13.29;83.27
32875;BME280;40468;42.128;24.750;2023-04-25T03:07:35;98905.16;;;13.27;83.26
32875;BME280;40468;42.128;24.750;2023-04-25T03:09:11;98909.22;;;13.31;83.38
32875;BME280;40468;42.128;24.750;2023-04-25T03:10:42;98908.06;;;13.22;82.93
32875;BME280;40468;42.128;24.750;2023-04-25T03:12:15;98909.00;;;13.21;83.40
32875;BME280;40468;42.128;24.750;2023-04-25T03:13:47;98910.88;;;13.19;83.19
32875;BME280;40468;42.128;24.750;2023-04-25T03:15:19;98906.75;;;13.16;83.58
32875;BME280;40468;42.128;24.750;2023-04-25T03:16:51;98910.06;;;13.18;83.63
32875;BME280;40468;42.128;24.750;2023-04-25T03:18:23;98915.19;;;13.20;83.39
32875;BME280;40468;42.128;24.750;2023-04-25T03:19:54;98912.59;;;13.20;83.52
32875;BME280;40468;42.128;24.750;2023-04-25T03:21:26;98926.34;;;13.22;83.54
32875;BME280;40468;42.128;24.750;2023-04-25T03:22:58;98922.81;;;13.23;83.64
32875;BME280;40468;42.128;24.750;2023-04-25T03:24:31;98917.91;;;13.18;83.70
32875;BME280;40468;42.128;24.750;2023-04-25T03:26:03;98927.09;;;13.24;83.26
32875;BME280;40468;42.128;24.750;2023-04-25T03:27:35;98918.44;;;13.24;83.39
32875;BME280;40468;42.128;24.750;2023-04-25T03:29:06;98912.47;;;13.21;83.59
32875;BME280;40468;42.128;24.750;2023-04-25T03:30:38;98906.19;;;13.24;83.71
32875;BME280;40468;42.128;24.750;2023-04-25T03:32:10;98902.69;;;13.25;83.65
32875;BME280;40468;42.128;24.750;2023-04-25T03:33:41;98907.00;;;13.25;83.63
32875;BME280;40468;42.128;24.750;2023-04-25T03:35:13;98904.34;;;13.26;83.58
32875;BME280;40468;42.128;24.750;2023-04-25T03:36:44;98897.31;;;13.27;83.74
32875;BME280;40468;42.128;24.750;2023-04-25T03:38:16;98889.47;;;13.27;83.52
32875;BME280;40468;42.128;24.750;2023-04-25T03:39:50;98895.31;;;13.30;83.50
32875;BME280;40468;42.128;24.750;2023-04-25T03:41:21;98887.81;;;13.26;83.57
32875;BME280;40468;42.128;24.750;2023-04-25T03:42:53;98886.88;;;13.27;83.75
32875;BME280;40468;42.128;24.750;2023-04-25T03:44:24;98885.09;;;13.27;83.51
32875;BME280;40468;42.128;24.750;2023-04-25T03:45:56;98878.19;;;13.26;83.67
32875;BME280;40468;42.128;24.750;2023-04-25T03:47:28;98878.06;;;13.28;83.21
32875;BME280;40468;42.128;24.750;2023-04-25T03:48:59;98880.59;;;13.29;83.56
32875;BME280;40468;42.128;24.750;2023-04-25T03:50:30;98882.25;;;13.30;83.51
32875;BME280;40468;42.128;24.750;2023-04-25T03:52:03;98887.59;;;13.29;83.40
32875;BME280;40468;42.128;24.750;2023-04-25T03:53:34;98883.41;;;13.26;83.48
32875;BME280;40468;42.128;24.750;2023-04-25T03:55:09;98881.00;;;13.23;83.44
32875;BME280;40468;42.128;24.750;2023-04-25T03:56:41;98877.63;;;13.21;83.37
32875;BME280;40468;42.128;24.750;2023-04-25T03:58:12;98883.69;;;13.21;83.31
32875;BME280;40468;42.128;24.750;2023-04-25T03:59:44;98878.47;;;13.21;82.95
32875;BME280;40468;42.128;24.750;2023-04-25T04:01:16;98878.47;;;13.21;83.24
32875;BME280;40468;42.128;24.750;2023-04-25T04:02:48;98877.63;;;13.21;82.83
32875;BME280;40468;42.128;24.750;2023-04-25T04:04:20;98872.41;;;13.21;82.98
32875;BME280;40468;42.128;24.750;2023-04-25T04:05:51;98865.84;;;13.15;83.32
32875;BME280;40468;42.128;24.750;2023-04-25T04:07:23;98869.19;;;13.17;83.25
32875;BME280;40468;42.128;24.750;2023-04-25T04:08:54;98868.34;;;13.17;83.08
32875;BME280;40468;42.128;24.750;2023-04-25T04:10:28;98871.69;;;13.19;83.39
32875;BME280;40468;42.128;24.750;2023-04-25T04:12:00;98871.69;;;13.19;83.31
32875;BME280;40468;42.128;24.750;2023-04-25T04:13:32;98872.41;;;13.21;83.37
32875;BME280;40468;42.128;24.750;2023-04-25T04:15:05;98865.63;;;13.18;83.38
32875;BME280;40468;42.128;24.750;2023-04-25T04:16:37;98866.56;;;13.17;83.38
32875;BME280;40468;42.128;24.750;2023-04-25T04:18:09;98874.19;;;13.20;82.86
32875;BME280;40468;42.128;24.750;2023-04-25T04:19:41;98874.19;;;13.20;83.14
32875;BME280;40468;42.128;24.750;2023-04-25T04:21:13;98881.00;;;13.23;82.94
32875;BME280;40468;42.128;24.750;2023-04-25T04:22:45;98868.88;;;13.09;82.94
32875;BME280;40468;42.128;24.750;2023-04-25T04:24:17;98886.09;;;13.25;83.08
32875;BME280;40468;42.128;24.750;2023-04-25T04:25:50;98882.59;;;13.26;83.59
32875;BME280;40468;42.128;24.750;2023-04-25T04:27:23;98884.38;;;13.25;83.44
32875;BME280;40468;42.128;24.750;2023-04-25T04:28:55;98885.47;;;13.21;83.40
32875;BME280;40468;42.128;24.750;2023-04-25T04:30:26;98887.81;;;13.26;83.45
32875;BME280;40468;42.128;24.750;2023-04-25T04:31:59;98892.84;;;13.29;83.76
32875;BME280;40468;42.128;24.750;2023-04-25T04:33:33;98891.78;;;13.31;83.60
32875;BME280;40468;42.128;24.750;2023-04-25T04:35:06;98889.88;;;13.33;83.66
32875;BME280;40468;42.128;24.750;2023-04-25T04:36:39;98903.59;;;13.37;83.62
32875;BME280;40468;42.128;24.750;2023-04-25T04:38:11;98885.91;;;13.40;83.97
32875;BME280;40468;42.128;24.750;2023-04-25T04:39:45;98879.84;;;13.40;83.84
32875;BME280;40468;42.128;24.750;2023-04-25T04:41:18;98886.38;;;13.46;83.29
32875;BME280;40468;42.128;24.750;2023-04-25T04:42:51;98886.06;;;13.50;83.44
32875;BME280;40468;42.128;24.750;2023-04-25T04:44:24;98883.34;;;13.52;83.10
32875;BME280;40468;42.128;24.750;2023-04-25T04:45:56;98886.66;;;13.54;83.19
32875;BME280;40468;42.128;24.750;2023-04-25T04:47:28;98883.13;;;13.55;83.06
32875;BME280;40468;42.128;24.750;2023-04-25T04:49:03;98887.50;;;13.54;83.01
32875;BME280;40468;42.128;24.750;2023-04-25T04:50:38;98887.06;;;13.60;82.68
32875;BME280;40468;42.128;24.750;2023-04-25T04:52:13;98871.94;;;13.53;82.90
32875;BME280;40468;42.128;24.750;2023-04-25T04:53:48;98897.31;;;13.63;82.69
32875;BME280;40468;42.128;24.750;2023-04-25T04:55:20;98897.31;;;13.63;82.40
32875;BME280;40468;42.128;24.750;2023-04-25T04:56:53;98898.16;;;13.64;82.08
32875;BME280;40468;42.128;24.750;2023-04-25T04:58:25;98889.69;;;13.60;81.84
32875;BME280;40468;42.128;24.750;2023-04-25T05:00:01;98894.81;;;13.62;81.73
32875;BME280;40468;42.128;24.750;2023-04-25T05:01:33;98899.00;;;13.64;81.93
32875;BME280;40468;42.128;24.750;2023-04-25T05:03:06;98893.84;;;13.63;81.82
32875;BME280;40468;42.128;24.750;2023-04-25T05:04:38;98908.41;;;13.67;81.56
32875;BME280;40468;42.128;24.750;2023-04-25T05:06:10;98905.66;;;13.69;81.71
32875;BME280;40468;42.128;24.750;2023-04-25T05:07:40;98903.78;;;13.71;81.52
32875;BME280;40468;42.128;24.750;2023-04-25T05:09:13;98906.19;;;13.74;81.65
32875;BME280;40468;42.128;24.750;2023-04-25T05:10:45;98902.72;;;13.73;81.62
32875;BME280;40468;42.128;24.750;2023-04-25T05:12:19;98873.50;;;13.55;81.87
32875;BME280;40468;42.128;24.750;2023-04-25T05:13:51;98899.06;;;13.76;81.82
32875;BME280;40468;42.128;24.750;2023-04-25T05:15:24;98897.38;;;13.75;81.81
32875;BME280;40468;42.128;24.750;2023-04-25T05:16:56;98895.47;;;13.77;81.72
32875;BME280;40468;42.128;24.750;2023-04-25T05:18:28;98892.63;;;13.80;81.71
32875;BME280;40468;42.128;24.750;2023-04-25T05:20:00;98888.38;;;13.79;81.72
32875;BME280;40468;42.128;24.750;2023-04-25T05:21:32;98886.44;;;13.81;81.50
32875;BME280;40468;42.128;24.750;2023-04-25T05:23:04;98893.25;;;13.83;81.41
32875;BME280;40468;42.128;24.750;2023-04-25T05:24:36;98899.22;;;13.85;81.47
32875;BME280;40468;42.128;24.750;2023-04-25T05:26:09;98893.84;;;13.87;81.72
32875;BME280;40468;42.128;24.750;2023-04-25T05:27:45;98896.38;;;13.88;81.69
32875;BME280;40468;42.128;24.750;2023-04-25T05:29:17;98892.78;;;13.89;81.48
32875;BME280;40468;42.128;24.750;2023-04-25T05:30:49;98898.84;;;13.90;81.44
32875;BME280;40468;42.128;24.750;2023-04-25T05:32:21;98891.88;;;13.91;81.34
32875;BME280;40468;42.128;24.750;2023-04-25T05:33:53;98894.25;;;13.94;81.49
32875;BME280;40468;42.128;24.750;2023-04-25T05:35:25;98895.09;;;13.94;81.78
32875;BME280;40468;42.128;24.750;2023-04-25T05:36:58;98895.38;;;14.02;81.75
32875;BME280;40468;42.128;24.750;2023-04-25T05:38:30;98895.97;;;14.06;81.73
32875;BME280;40468;42.128;24.750;2023-04-25T05:40:03;98892.53;;;14.05;81.36
32875;BME280;40468;42.128;24.750;2023-04-25T05:41:37;98893.84;;;14.11;81.45
32875;BME280;40468;42.128;24.750;2023-04-25T05:43:11;98902.09;;;14.18;81.25
32875;BME280;40468;42.128;24.750;2023-04-25T05:44:43;98895.06;;;14.18;81.14
32875;BME280;40468;42.128;24.750;2023-04-25T05:46:15;98886.97;;;14.21;80.95
32875;BME280;40468;42.128;24.750;2023-04-25T05:47:47;98871.72;;;14.15;80.76
32875;BME280;40468;42.128;24.750;2023-04-25T05:49:20;98892.97;;;14.34;80.74
32875;BME280;40468;42.128;24.750;2023-04-25T05:50:52;98896.63;;;14.56;80.82
32875;BME280;40468;42.128;24.750;2023-04-25T05:52:25;98897.47;;;15.01;80.85
32875;BME280;40468;42.128;24.750;2023-04-25T05:53:57;98888.94;;;15.54;79.87
32875;BME280;40468;42.128;24.750;2023-04-25T05:55:29;98897.09;;;15.95;78.43
32875;BME280;40468;42.128;24.750;2023-04-25T05:57:01;98903.72;;;16.31;77.38
32875;BME280;40468;42.128;24.750;2023-04-25T05:58:35;98895.38;;;16.68;75.78
32875;BME280;40468;42.128;24.750;2023-04-25T06:00:08;98892.44;;;16.82;74.81
32875;BME280;40468;42.128;24.750;2023-04-25T06:01:41;98893.00;;;16.86;74.19
32875;BME280;40468;42.128;24.750;2023-04-25T06:03:13;98889.97;;;17.21;73.29
32875;BME280;40468;42.128;24.750;2023-04-25T06:04:46;98885.22;;;17.65;72.10
32875;BME280;40468;42.128;24.750;2023-04-25T06:06:18;98886.13;;;18.14;70.39
32875;BME280;40468;42.128;24.750;2023-04-25T06:07:50;98893.81;;;18.54;68.55
32875;BME280;40468;42.128;24.750;2023-04-25T06:09:22;98885.69;;;18.95;66.92
32875;BME280;40468;42.128;24.750;2023-04-25T06:10:54;98889.41;;;19.29;65.09
32875;BME280;40468;42.128;24.750;2023-04-25T06:12:27;98887.03;;;19.54;63.29
32875;BME280;40468;42.128;24.750;2023-04-25T06:14:05;98890.25;;;19.75;62.14
32875;BME280;40468;42.128;24.750;2023-04-25T06:15:37;98882.13;;;19.87;60.97
32875;BME280;40468;42.128;24.750;2023-04-25T06:17:10;98870.03;;;19.84;60.56
32875;BME280;40468;42.128;24.750;2023-04-25T06:18:42;98875.41;;;19.74;59.92
32875;BME280;40468;42.128;24.750;2023-04-25T06:20:14;98877.94;;;19.66;60.27
32875;BME280;40468;42.128;24.750;2023-04-25T06:21:45;98871.72;;;19.58;60.21
32875;BME280;40468;42.128;24.750;2023-04-25T06:23:18;98873.59;;;19.47;60.25
32875;BME280;40468;42.128;24.750;2023-04-25T06:24:50;98862.50;;;19.26;60.39
32875;BME280;40468;42.128;24.750;2023-04-25T06:26:22;98875.09;;;19.32;60.71
32875;BME280;40468;42.128;24.750;2023-04-25T06:27:54;98883.16;;;19.30;60.30
32875;BME280;40468;42.128;24.750;2023-04-25T06:29:27;98874.53;;;19.28;60.44
32875;BME280;40468;42.128;24.750;2023-04-25T06:30:59;98871.22;;;19.26;60.05
32875;BME280;40468;42.128;24.750;2023-04-25T06:32:32;98874.00;;;19.25;60.00
32875;BME280;40468;42.128;24.750;2023-04-25T06:34:04;98874.69;;;19.27;60.11
32875;BME280;40468;42.128;24.750;2023-04-25T06:35:54;98845.44;;;19.20;60.01
32875;BME280;40468;42.128;24.750;2023-04-25T06:37:51;98857.44;;;19.32;59.78
32875;BME280;40468;42.128;24.750;2023-04-25T06:40:07;98866.72;;;19.37;59.72
32875;BME280;40468;42.128;24.750;2023-04-25T06:42:06;98865.88;;;19.36;59.18
32875;BME280;40468;42.128;24.750;2023-04-25T06:44:25;98856.69;;;19.40;59.34
32875;BME280;40468;42.128;24.750;2023-04-25T06:46:08;98852.31;;;19.49;58.81
32875;BME280;40468;42.128;24.750;2023-04-25T06:47:40;98863.50;;;19.61;59.34
32875;BME280;40468;42.128;24.750;2023-04-25T06:49:14;98860.69;;;19.72;58.94
32875;BME280;40468;42.128;24.750;2023-04-25T06:50:46;98867.66;;;19.91;58.51
32875;BME280;40468;42.128;24.750;2023-04-25T06:52:19;98860.63;;;19.99;57.87
32875;BME280;40468;42.128;24.750;2023-04-25T06:53:51;98848.97;;;19.92;57.16
32875;BME280;40468;42.128;24.750;2023-04-25T06:55:23;98865.72;;;20.01;56.24
32875;BME280;40468;42.128;24.750;2023-04-25T06:56:55;98853.34;;;20.02;56.48
32875;BME280;40468;42.128;24.750;2023-04-25T06:58:27;98877.81;;;20.21;56.41
32875;BME280;40468;42.128;24.750;2023-04-25T07:00:00;98866.66;;;20.36;55.95
32875;BME280;40468;42.128;24.750;2023-04-25T07:01:36;98866.25;;;20.49;55.61
32875;BME280;40468;42.128;24.750;2023-04-25T07:03:09;98864.59;;;20.65;55.05
32875;BME280;40468;42.128;24.750;2023-04-25T07:04:41;98870.13;;;20.80;53.12
32875;BME280;40468;42.128;24.750;2023-04-25T07:06:13;98861.00;;;20.75;53.05
32875;BME280;40468;42.128;24.750;2023-04-25T07:07:45;98869.28;;;20.80;53.58
32875;BME280;40468;42.128;24.750;2023-04-25T07:09:17;98858.09;;;20.86;53.58
32875;BME280;40468;42.128;24.750;2023-04-25T07:10:49;98855.81;;;20.99;53.28
32875;BME280;40468;42.128;24.750;2023-04-25T07:12:21;98862.69;;;21.18;53.04
32875;BME280;40468;42.128;24.750;2023-04-25T07:13:53;98844.34;;;21.25;52.75
32875;BME280;40468;42.128;24.750;2023-04-25T07:15:26;98860.00;;;21.52;52.39
32875;BME280;40468;42.128;24.750;2023-04-25T07:16:59;98856.72;;;21.67;52.20
32875;BME280;40468;42.128;24.750;2023-04-25T07:18:31;98860.69;;;21.79;51.53
32875;BME280;40468;42.128;24.750;2023-04-25T07:20:04;98859.53;;;21.73;51.02
32875;BME280;40468;42.128;24.750;2023-04-25T07:21:40;98856.53;;;21.60;50.64
32875;BME280;40468;42.128;24.750;2023-04-25T07:23:11;98853.03;;;21.51;50.17
32875;BME280;40468;42.128;24.750;2023-04-25T07:24:44;98857.00;;;21.47;50.12
32875;BME280;40468;42.128;24.750;2023-04-25T07:26:19;98854.88;;;21.51;50.10
32875;BME280;40468;42.128;24.750;2023-04-25T07:27:53;98852.53;;;21.56;50.59
32875;BME280;40468;42.128;24.750;2023-04-25T07:29:25;98849.25;;;21.62;50.59
32875;BME280;40468;42.128;24.750;2023-04-25T07:30:58;98850.41;;;21.68;50.24
32875;BME280;40468;42.128;24.750;2023-04-25T07:32:31;98845.47;;;21.81;50.54
32875;BME280;40468;42.128;24.750;2023-04-25T07:34:03;98844.13;;;21.85;50.61
32875;BME280;40468;42.128;24.750;2023-04-25T07:35:35;98842.16;;;21.87;50.27
32875;BME280;40468;42.128;24.750;2023-04-25T07:37:07;98839.53;;;21.95;49.90
32875;BME280;40468;42.128;24.750;2023-04-25T07:38:40;98842.16;;;22.03;49.84
32875;BME280;40468;42.128;24.750;2023-04-25T07:40:12;98835.19;;;22.02;49.56
32875;BME280;40468;42.128;24.750;2023-04-25T07:41:46;98850.09;;;22.03;49.25
32875;BME280;40468;42.128;24.750;2023-04-25T07:43:18;98846.00;;;22.01;49.00
32875;BME280;40468;42.128;24.750;2023-04-25T07:44:50;98845.47;;;22.06;48.91
32875;BME280;40468;42.128;24.750;2023-04-25T07:46:22;98829.25;;;21.92;48.55
32875;BME280;40468;42.128;24.750;2023-04-25T07:47:56;98836.53;;;21.98;48.62
32875;BME280;40468;42.128;24.750;2023-04-25T07:49:28;98831.25;;;21.98;49.35
32875;BME280;40468;42.128;24.750;2023-04-25T07:51:00;98830.41;;;21.98;49.36
32875;BME280;40468;42.128;24.750;2023-04-25T07:52:32;98839.50;;;22.03;49.37
32875;BME280;40468;42.128;24.750;2023-04-25T07:54:04;98829.75;;;22.20;49.38
32875;BME280;40468;42.128;24.750;2023-04-25T07:55:36;98831.72;;;22.43;49.32
32875;BME280;40468;42.128;24.750;2023-04-25T07:57:10;98828.53;;;22.56;48.85
32875;BME280;40468;42.128;24.750;2023-04-25T07:58:44;98814.78;;;22.52;48.43
32875;BME280;40468;42.128;24.750;2023-04-25T08:00:17;98816.91;;;22.57;48.56
32875;BME280;40468;42.128;24.750;2023-04-25T08:01:49;98822.88;;;22.59;48.20
32875;BME280;40468;42.128;24.750;2023-04-25T08:03:23;98821.25;;;22.58;48.04
32875;BME280;40468;42.128;24.750;2023-04-25T08:04:55;98808.81;;;22.50;47.35
32875;BME280;40468;42.128;24.750;2023-04-25T08:06:27;98823.72;;;22.59;47.24